• 1
  • 1

 

 

 
NEU! ab. 1.4.
Nortel Info 128,740 MHz

WebCam

  
Kamera Halle
Kamera Vorplatz
Wetter EDDS

METAR

EDDS 200520Z 07004KT 9999 FEW009 OVC030 M02/M03 Q1014 NOSIG =


TAF

EDDS 200500Z 2006/2106 VRB03KT 9999 BKN025 BECMG 2010/2014 01005KT =


SR/SS

06:19 / 16:50 UTC
(EDSO 20-02-2018)

Austräger der GPS Triangle WM 2017